Time;durP1;ratioP1;P1;durP2;ratioP2;P2;SDS_P1;SDS_P2;PMS_P1;PMS_P2;Temp;Humidity;BMP_temperature;BMP_pressure;BME280_temperature;BME280_humidity;BME280_pressure;Samples;Min_cycle;Max_cycle;Signal;HPM_P1;HPM_P2
2022/02/04 00:06:52;;;;;;;32.57;29.10;;;7.10;99.90;;;;;;4983027;28;20456;-69
2022/02/04 00:09:56;;;;;;;30.90;27.37;;;7.10;99.90;;;;;;4983315;28;20569;-70
2022/02/04 00:20:38;;;;;;;32.23;29.00;;;7.20;99.90;;;;;;4981083;28;20473;-71
2022/02/04 00:23:12;;;;;;;29.77;26.53;;;7.20;99.90;;;;;;4979561;28;20959;-71
2022/02/04 00:25:53;;;;;;;29.77;26.60;;;7.10;99.90;;;;;;4982752;28;20500;-72
2022/02/04 00:28:29;;;;;;;35.67;27.17;;;7.10;99.90;;;;;;4981505;28;20519;-71
2022/02/04 00:31:14;;;;;;;31.17;27.90;;;7.10;99.90;;;;;;4976641;28;20466;-73
2022/02/04 00:33:45;;;;;;;30.87;26.90;;;7.10;99.90;;;;;;4979598;28;20573;-71
2022/02/04 00:36:17;;;;;;;30.47;27.33;;;7.20;99.90;;;;;;4980333;28;20489;-71
2022/02/04 00:38:48;;;;;;;29.93;26.73;;;7.10;99.90;;;;;;4982191;28;21394;-70
2022/02/04 00:41:18;;;;;;;28.57;25.30;;;7.10;99.90;;;;;;4980832;28;20565;-69
2022/02/04 00:43:47;;;;;;;28.93;26.07;;;7.10;99.90;;;;;;4976744;28;20889;-70
2022/02/04 00:46:18;;;;;;;28.17;25.17;;;7.10;99.90;;;;;;4980653;28;20594;-70
2022/02/04 00:48:53;;;;;;;29.87;26.87;;;7.20;99.90;;;;;;4974811;28;20968;-69
2022/02/04 00:51:27;;;;;;;28.57;25.67;;;7.20;99.90;;;;;;4981199;28;20471;-69
2022/02/04 00:54:00;;;;;;;28.00;25.30;;;7.20;99.90;;;;;;4980438;28;20472;-69
2022/02/04 00:56:34;;;;;;;28.43;25.40;;;7.20;99.90;;;;;;4978842;28;20519;-70
2022/02/04 01:26:24;;;;;;;22.83;20.50;;;7.20;99.90;;;;;;4974373;28;20518;-70
2022/02/04 01:28:53;;;;;;;23.77;21.50;;;7.20;99.90;;;;;;4982401;28;20950;-69
2022/02/04 01:31:22;;;;;;;25.17;22.77;;;7.20;99.90;;;;;;4983595;28;20545;-69
2022/02/04 01:33:50;;;;;;;24.77;22.57;;;7.20;99.90;;;;;;4978570;28;20501;-70
2022/02/04 01:36:19;;;;;;;25.20;22.80;;;7.20;99.90;;;;;;4980329;28;20577;-70
2022/02/04 01:38:47;;;;;;;25.00;22.60;;;7.20;99.90;;;;;;4980583;28;20890;-71
2022/02/04 01:41:14;;;;;;;23.50;21.10;;;7.20;99.90;;;;;;4980987;28;20468;-69
2022/02/04 01:43:42;;;;;;;23.77;21.47;;;7.30;99.90;;;;;;4977229;28;21003;-69
2022/02/04 01:46:11;;;;;;;19.13;17.50;;;7.40;99.90;;;;;;4979826;28;20530;-70
2022/02/04 01:51:22;;;;;;;26.17;22.37;;;7.20;99.90;;;;;;4979801;28;20464;-69
2022/02/04 01:53:49;;;;;;;23.17;20.97;;;7.30;99.90;;;;;;4980872;28;20467;-69
2022/02/04 01:56:16;;;;;;;23.50;21.40;;;7.30;99.90;;;;;;4977462;28;20478;-69
2022/02/04 01:58:43;;;;;;;23.23;21.13;;;7.30;99.90;;;;;;4978192;28;20459;-69
2022/02/04 02:01:11;;;;;;;22.47;20.50;;;7.20;99.90;;;;;;4978892;28;20967;-71
2022/02/04 02:03:38;;;;;;;20.67;18.90;;;7.30;99.90;;;;;;4978627;28;20459;-69
2022/02/04 02:06:09;;;;;;;22.87;20.57;;;7.30;99.90;;;;;;4981610;28;20531;-71
2022/02/04 02:08:40;;;;;;;22.40;20.50;;;7.40;99.90;;;;;;4984085;28;21197;-70
2022/02/04 02:11:08;;;;;;;24.10;21.70;;;7.40;99.90;;;;;;4978269;28;20493;-70
2022/02/04 02:13:43;;;;;;;22.93;20.87;;;7.40;99.90;;;;;;4980078;28;20464;-70
2022/02/04 02:16:23;;;;;;;22.20;20.10;;;7.50;99.90;;;;;;4981059;28;20474;-71
2022/02/04 02:35:47;;;;;;;22.87;20.77;;;7.50;99.90;;;;;;4978665;28;20469;-69
2022/02/04 02:44:14;;;;;;;23.20;20.77;;;7.50;99.90;;;;;;4980833;28;20466;-69
2022/02/04 02:47:11;;;;;;;23.43;21.13;;;7.50;99.90;;;;;;4980692;28;20473;-69
2022/02/04 02:50:06;;;;;;;23.40;21.20;;;7.30;99.90;;;;;;4980069;28;20471;-69
2022/02/04 02:52:48;;;;;;;22.67;20.80;;;7.30;99.90;;;;;;4974216;28;20552;-69
2022/02/04 02:55:27;;;;;;;22.80;20.60;;;7.30;99.90;;;;;;4983706;28;20493;-71
2022/02/04 02:58:04;;;;;;;24.20;22.00;;;7.30;99.90;;;;;;4980437;28;20527;-70
2022/02/04 03:00:44;;;;;;;22.53;20.47;;;7.50;99.90;;;;;;4980988;28;20454;-72
2022/02/04 03:03:14;;;;;;;24.43;22.13;;;7.50;99.90;;;;;;4980374;28;20476;-71
2022/02/04 03:05:41;;;;;;;20.97;18.80;;;7.50;99.90;;;;;;4979486;28;20515;-71
2022/02/04 03:08:09;;;;;;;22.73;20.70;;;7.40;99.90;;;;;;4984693;28;20456;-71
2022/02/04 03:10:37;;;;;;;22.80;20.57;;;7.40;99.90;;;;;;4975992;28;20823;-69
2022/02/04 03:13:06;;;;;;;21.03;19.37;;;7.50;99.90;;;;;;4984633;28;20482;-71
2022/02/04 03:15:34;;;;;;;22.20;20.30;;;7.50;99.90;;;;;;4981492;28;20510;-71
2022/02/04 03:18:04;;;;;;;22.53;20.53;;;7.50;99.90;;;;;;4981600;28;20454;-68
2022/02/04 03:20:44;;;;;;;21.70;19.90;;;7.50;99.90;;;;;;4984924;28;20468;-71
2022/02/04 03:23:11;;;;;;;22.07;19.97;;;7.60;99.90;;;;;;4976431;28;20876;-70
2022/02/04 03:25:44;;;;;;;21.00;19.00;;;7.60;99.90;;;;;;4982416;28;21046;-70
2022/02/04 03:28:16;;;;;;;21.53;19.67;;;7.50;99.90;;;;;;4981286;28;21092;-69
2022/02/04 03:30:44;;;;;;;19.33;17.80;;;7.60;99.90;;;;;;4979221;28;20538;-69
2022/02/04 03:33:12;;;;;;;20.83;19.13;;;7.60;99.90;;;;;;4979333;28;20526;-73
2022/02/04 03:35:39;;;;;;;19.97;18.47;;;7.60;99.90;;;;;;4978601;28;20578;-70
2022/02/04 03:38:06;;;;;;;21.27;19.27;;;7.70;99.90;;;;;;4979580;28;20462;-71
2022/02/04 03:40:33;;;;;;;21.00;19.30;;;7.50;99.90;;;;;;4982301;28;21299;-71
2022/02/04 03:43:01;;;;;;;19.57;18.07;;;7.60;99.90;;;;;;4982979;28;20472;-71
2022/02/04 03:45:28;;;;;;;19.93;18.10;;;7.70;99.90;;;;;;4980909;28;20464;-70
2022/02/04 03:47:55;;;;;;;21.00;18.90;;;7.60;99.90;;;;;;4980020;28;20476;-71
2022/02/04 03:50:22;;;;;;;18.67;17.20;;;7.60;99.90;;;;;;4976873;28;20831;-71
2022/02/04 03:52:49;;;;;;;19.03;17.50;;;7.60;99.90;;;;;;4983297;28;20466;-70
2022/02/04 03:55:16;;;;;;;19.67;18.17;;;7.60;99.90;;;;;;4984738;28;20465;-70
2022/02/04 03:57:43;;;;;;;19.33;17.93;;;7.70;99.90;;;;;;4982434;28;20881;-71
2022/02/04 04:00:14;;;;;;;19.50;17.70;;;7.70;99.90;;;;;;4975547;28;20650;-72
2022/02/04 04:02:41;;;;;;;18.70;17.30;;;7.70;99.90;;;;;;4980281;28;20470;-72
2022/02/04 04:05:10;;;;;;;18.43;17.00;;;7.70;99.90;;;;;;4983279;28;20478;-71
2022/02/04 04:07:42;;;;;;;18.77;17.27;;;7.70;99.90;;;;;;4982630;28;20952;-70
2022/02/04 04:10:14;;;;;;;19.03;17.43;;;7.70;99.90;;;;;;4978968;28;20516;-71
2022/02/04 04:12:41;;;;;;;18.20;16.60;;;7.80;99.90;;;;;;4979683;28;20467;-70
2022/02/04 04:15:10;;;;;;;19.67;18.07;;;7.70;99.90;;;;;;4976482;28;20454;-70
2022/02/04 04:17:41;;;;;;;21.67;18.07;;;7.70;99.90;;;;;;4983221;28;21070;-73
2022/02/04 04:20:10;;;;;;;20.53;18.77;;;7.70;99.90;;;;;;4980059;28;20467;-72
2022/02/04 04:22:37;;;;;;;18.80;17.30;;;7.70;99.90;;;;;;4978684;28;20459;-72
2022/02/04 04:25:05;;;;;;;19.17;17.50;;;7.70;99.90;;;;;;4979821;28;20466;-70
2022/02/04 04:27:32;;;;;;;21.23;19.43;;;7.60;99.90;;;;;;4983819;28;20470;-73
2022/02/04 04:29:59;;;;;;;19.27;17.97;;;7.60;99.90;;;;;;4981677;28;20465;-71
2022/02/04 04:32:26;;;;;;;18.33;16.93;;;7.70;99.90;;;;;;4980844;28;20484;-70
2022/02/04 04:34:54;;;;;;;19.40;17.90;;;7.70;99.90;;;;;;4978204;28;20873;-70
2022/02/04 04:37:23;;;;;;;19.47;18.07;;;7.70;99.90;;;;;;4979053;28;20835;-70
2022/02/04 04:40:00;;;;;;;19.60;18.07;;;7.70;99.90;;;;;;4971338;28;20555;-69
2022/02/04 04:42:47;;;;;;;17.33;16.17;;;7.70;99.90;;;;;;4986463;28;20791;-71
2022/02/04 04:45:44;;;;;;;16.83;15.63;;;7.70;99.90;;;;;;4989152;28;20543;-71
2022/02/04 05:27:44;;;;;;;19.00;17.40;;;7.80;99.90;;;;;;4956232;28;20461;-69
2022/02/04 05:29:55;;;;;;;18.07;16.87;;;7.80;99.90;;;;;;4955482;28;21242;-71
2022/02/04 05:32:22;;;;;;;18.60;17.30;;;7.80;99.90;;;;;;4956805;28;20832;-70
2022/02/04 05:34:50;;;;;;;18.00;16.70;;;7.80;99.90;;;;;;4956466;28;20494;-70
2022/02/04 05:37:19;;;;;;;18.20;16.80;;;7.80;99.90;;;;;;4956855;28;20545;-70
2022/02/04 05:39:54;;;;;;;17.80;16.60;;;7.80;99.90;;;;;;4956330;28;20635;-70
2022/02/04 05:42:25;;;;;;;17.30;16.10;;;7.80;99.90;;;;;;4957117;28;20469;-71
2022/02/04 05:44:57;;;;;;;17.43;16.13;;;7.80;99.90;;;;;;4957157;28;20817;-70
2022/02/04 05:47:25;;;;;;;22.03;16.60;;;7.70;99.90;;;;;;4955804;28;20478;-70
2022/02/04 05:50:07;;;;;;;17.63;16.43;;;7.80;99.90;;;;;;4955476;28;20462;-71
2022/02/04 05:52:49;;;;;;;18.27;17.00;;;7.80;99.90;;;;;;4956419;28;20895;-70
2022/02/04 05:55:32;;;;;;;17.93;16.53;;;7.90;99.90;;;;;;4957826;28;20472;-71
2022/02/04 05:58:05;;;;;;;18.47;17.07;;;7.90;99.90;;;;;;4955979;28;20492;-70
2022/02/04 06:00:39;;;;;;;16.73;15.73;;;8.00;99.90;;;;;;4956750;28;21244;-70
2022/02/04 06:03:33;;;;;;;16.57;15.37;;;7.90;99.90;;;;;;4955881;28;20828;-70
2022/02/04 06:06:26;;;;;;;16.57;15.57;;;7.90;99.90;;;;;;4954526;28;20482;-70
2022/02/04 06:09:24;;;;;;;16.87;15.70;;;7.90;99.90;;;;;;4955686;28;20471;-70
2022/02/04 06:12:04;;;;;;;17.47;15.83;;;7.90;99.90;;;;;;4955478;28;20657;-69
2022/02/04 06:14:48;;;;;;;16.30;15.30;;;7.90;99.90;;;;;;4956250;28;20466;-71
2022/02/04 06:22:45;;;;;;;15.97;15.00;;;7.90;99.90;;;;;;4955972;28;20457;-70
2022/02/04 06:25:13;;;;;;;15.53;14.70;;;7.80;99.90;;;;;;4956649;28;20466;-71
2022/02/04 06:27:42;;;;;;;16.37;15.30;;;7.80;99.90;;;;;;4956273;28;20846;-71
2022/02/04 06:30:11;;;;;;;15.60;14.60;;;7.80;99.90;;;;;;4953578;28;21056;-70
2022/02/04 06:32:38;;;;;;;15.63;14.67;;;7.80;99.90;;;;;;4955159;28;20471;-70
2022/02/04 06:35:07;;;;;;;15.27;14.30;;;7.70;99.90;;;;;;4955462;28;20494;-71
2022/02/04 06:37:34;;;;;;;15.60;14.60;;;7.70;99.90;;;;;;4955303;28;21687;-71
2022/02/04 06:40:02;;;;;;;16.03;14.87;;;7.80;99.90;;;;;;4955654;28;20451;-70
2022/02/04 06:42:30;;;;;;;17.17;15.90;;;7.80;99.90;;;;;;4956023;28;20471;-71
2022/02/04 06:44:58;;;;;;;16.53;15.40;;;7.60;99.90;;;;;;4955665;28;21050;-71
2022/02/04 06:47:27;;;;;;;16.80;15.40;;;7.60;99.90;;;;;;4995982;28;20972;-71
2022/02/04 06:49:54;;;;;;;19.43;17.97;;;7.60;99.90;;;;;;4974939;28;20462;-71
2022/02/04 06:52:21;;;;;;;17.97;16.53;;;7.60;99.90;;;;;;4951544;28;21068;-72
2022/02/04 06:54:48;;;;;;;17.43;16.23;;;7.70;99.90;;;;;;4952466;28;20469;-71
2022/02/04 06:57:15;;;;;;;18.70;17.13;;;7.60;99.90;;;;;;4952290;28;20491;-70
2022/02/04 06:59:44;;;;;;;18.60;17.00;;;7.60;99.90;;;;;;4954369;28;20462;-71
2022/02/04 07:02:12;;;;;;;18.27;16.97;;;7.50;99.90;;;;;;4954936;28;20493;-71
2022/02/04 07:04:40;;;;;;;21.20;19.67;;;7.40;99.90;;;;;;4954066;28;20470;-70
2022/02/04 07:07:07;;;;;;;22.97;21.13;;;7.30;99.90;;;;;;4954588;28;21143;-70
2022/02/04 07:09:44;;;;;;;24.27;22.33;;;7.20;99.90;;;;;;4954665;28;20483;-69
2022/02/04 07:15:39;;;;;;;23.80;21.90;;;7.20;99.90;;;;;;4956100;28;20461;-69
2022/02/04 07:20:48;;;;;;;25.30;23.07;;;7.20;99.90;;;;;;4952953;28;21061;-70
2022/02/04 07:23:15;;;;;;;24.00;22.00;;;7.20;99.90;;;;;;4953649;28;20815;-70
2022/02/04 07:25:42;;;;;;;24.60;22.53;;;7.20;99.90;;;;;;4954129;28;20973;-70
2022/02/04 07:28:09;;;;;;;25.37;23.07;;;7.20;99.90;;;;;;4952019;28;21291;-69
2022/02/04 07:30:36;;;;;;;25.07;22.97;;;7.30;99.90;;;;;;4953071;28;20473;-69
2022/02/04 07:33:12;;;;;;;23.20;21.30;;;7.30;99.90;;;;;;4952681;28;20472;-71
2022/02/04 07:38:49;;;;;;;24.43;22.50;;;7.20;99.90;;;;;;4951686;28;20833;-70
2022/02/04 07:41:16;;;;;;;22.67;20.70;;;7.30;99.90;;;;;;4952706;28;20559;-70
2022/02/04 07:43:43;;;;;;;22.30;20.43;;;7.40;99.90;;;;;;4957710;28;21197;-70
2022/02/04 07:46:12;;;;;;;22.13;20.40;;;7.40;99.90;;;;;;4956837;28;20479;-69
2022/02/04 07:48:40;;;;;;;22.57;20.83;;;7.40;99.90;;;;;;4958194;28;20542;-72
2022/02/04 07:51:09;;;;;;;22.17;20.57;;;7.40;99.90;;;;;;4955335;28;21048;-70
2022/02/04 07:53:36;;;;;;;20.23;18.73;;;7.40;99.90;;;;;;4956339;28;20854;-70
2022/02/04 07:56:04;;;;;;;20.33;18.90;;;7.50;99.90;;;;;;4956319;28;20922;-70
2022/02/04 07:58:31;;;;;;;19.90;18.50;;;7.60;99.90;;;;;;4956439;28;20475;-69
2022/02/04 08:00:59;;;;;;;20.67;18.97;;;7.60;99.90;;;;;;4968934;28;20939;-70
2022/02/04 08:03:39;;;;;;;19.20;17.73;;;7.70;99.90;;;;;;4985069;28;20476;-70
2022/02/04 08:06:10;;;;;;;18.37;16.80;;;7.70;99.90;;;;;;4966724;28;20481;-70
2022/02/04 08:08:46;;;;;;;18.80;17.40;;;7.70;99.90;;;;;;4955531;28;20466;-69
2022/02/04 08:11:39;;;;;;;21.77;18.20;;;7.70;99.90;;;;;;4957209;28;20568;-70
2022/02/04 08:14:19;;;;;;;18.90;17.47;;;7.80;99.90;;;;;;4957242;28;20485;-71
2022/02/04 08:20:12;;;;;;;19.83;18.37;;;7.90;99.90;;;;;;4921097;28;21002;-70
2022/02/04 08:22:59;;;;;;;18.00;16.73;;;7.90;99.90;;;;;;4955626;28;22519;-71
2022/02/04 08:46:33;;;;;;;18.17;16.70;;;8.00;99.90;;;;;;4956454;28;20532;-70
2022/02/04 08:48:35;;;;;;;18.17;16.80;;;8.10;99.90;;;;;;4955150;28;20522;-70
2022/02/04 08:56:37;;;;;;;18.33;17.07;;;8.50;99.90;;;;;;4955588;28;20469;-70
2022/02/04 08:59:13;;;;;;;18.83;17.53;;;8.50;99.90;;;;;;4955870;28;20551;-70
2022/02/04 09:01:47;;;;;;;20.13;18.53;;;8.60;99.90;;;;;;4955116;28;20531;-71
2022/02/04 09:04:17;;;;;;;18.87;17.53;;;8.60;99.90;;;;;;4956569;28;20485;-69
2022/02/04 09:06:50;;;;;;;18.73;17.43;;;8.60;99.90;;;;;;4955986;28;20508;-70
2022/02/04 09:09:28;;;;;;;19.77;18.27;;;8.60;99.90;;;;;;4956570;28;20904;-69
2022/02/04 09:12:05;;;;;;;19.07;17.47;;;8.50;99.90;;;;;;4956230;28;20474;-68
2022/02/04 09:17:32;;;;;;;19.47;18.03;;;8.70;99.90;;;;;;4954992;28;20541;-70
2022/02/04 09:20:03;;;;;;;19.23;17.90;;;8.60;99.90;;;;;;4955177;28;20474;-70
2022/02/04 09:22:45;;;;;;;20.50;18.97;;;8.60;99.90;;;;;;4956191;28;20472;-72
2022/02/04 09:25:13;;;;;;;15.47;14.57;;;8.60;99.90;;;;;;4956310;28;20840;-69
2022/02/04 09:27:40;;;;;;;18.80;17.20;;;8.40;99.90;;;;;;4955406;28;20487;-69
2022/02/04 09:30:12;;;;;;;17.70;16.50;;;8.50;99.90;;;;;;4955776;28;20478;-70
2022/02/04 09:32:39;;;;;;;18.90;17.37;;;8.40;99.90;;;;;;4955698;28;20477;-69
2022/02/04 09:35:09;;;;;;;17.80;16.53;;;8.60;99.90;;;;;;4954444;28;20491;-71
2022/02/04 09:37:36;;;;;;;16.17;15.07;;;8.60;99.90;;;;;;4955340;28;20494;-72
2022/02/04 09:40:04;;;;;;;18.10;16.90;;;8.60;99.90;;;;;;4957344;28;20657;-70
2022/02/04 09:42:32;;;;;;;18.13;16.93;;;8.60;99.90;;;;;;4956474;28;20471;-70
2022/02/04 09:44:59;;;;;;;17.73;16.50;;;8.80;99.90;;;;;;4957876;28;21092;-70
2022/02/04 09:47:34;;;;;;;17.13;16.03;;;8.80;99.90;;;;;;4957096;28;20513;-72
2022/02/04 09:50:02;;;;;;;16.77;15.57;;;8.80;99.90;;;;;;4957017;28;20523;-69
2022/02/04 10:09:54;;;;;;;18.33;17.13;;;8.50;99.90;;;;;;4937673;28;20463;-68
2022/02/04 10:12:36;;;;;;;16.50;15.50;;;8.50;99.90;;;;;;4954767;28;20472;-70
2022/02/04 10:15:18;;;;;;;18.00;16.70;;;8.50;99.90;;;;;;4963439;28;20466;-69
2022/02/04 10:17:59;;;;;;;17.37;16.30;;;8.70;99.90;;;;;;4979532;28;20491;-70
2022/02/04 10:20:27;;;;;;;17.03;15.80;;;8.80;99.90;;;;;;4976613;28;20467;-71
2022/02/04 10:22:54;;;;;;;15.97;15.00;;;8.70;99.90;;;;;;4955344;28;20469;-70
2022/02/04 10:25:21;;;;;;;16.43;15.43;;;8.70;99.90;;;;;;4956849;28;22919;-69
2022/02/04 10:27:48;;;;;;;16.23;15.20;;;8.90;99.90;;;;;;4956235;28;20502;-69
2022/02/04 10:30:17;;;;;;;17.17;16.00;;;9.10;99.90;;;;;;4956072;28;20906;-71
2022/02/04 10:32:46;;;;;;;16.50;15.40;;;9.10;99.90;;;;;;4956264;28;20822;-69
2022/02/04 10:35:20;;;;;;;16.73;15.73;;;9.10;99.90;;;;;;4955479;28;20650;-70
2022/02/04 10:38:07;;;;;;;16.43;15.30;;;9.30;99.90;;;;;;4954310;28;20943;-70
2022/02/04 10:40:44;;;;;;;16.00;15.10;;;9.30;99.90;;;;;;4955097;28;20845;-72
2022/02/04 10:43:28;;;;;;;15.87;14.87;;;9.40;99.90;;;;;;4956124;28;20480;-70
2022/02/04 10:46:06;;;;;;;15.67;14.67;;;9.40;99.90;;;;;;4956239;28;20573;-70
2022/02/04 10:57:25;;;;;;;14.93;14.23;;;9.80;99.90;;;;;;4955706;28;21123;-69
2022/02/04 11:02:55;;;;;;;15.67;14.87;;;9.70;99.90;;;;;;4954215;28;20811;-70
2022/02/04 11:05:28;;;;;;;14.90;14.20;;;9.90;99.90;;;;;;4954581;28;20467;-70
2022/02/04 11:53:44;;;;;;;15.50;14.70;;;9.30;99.90;;;;;;4957343;28;20565;-70
2022/02/04 11:56:10;;;;;;;15.57;14.77;;;9.40;99.90;;;;;;4956765;28;21006;-70
2022/02/04 11:59:08;;;;;;;15.30;14.27;;;9.20;99.90;;;;;;4956677;28;21018;-70
2022/02/04 12:01:43;;;;;;;15.67;14.87;;;9.50;99.90;;;;;;4983696;28;20469;-69
2022/02/04 12:04:21;;;;;;;15.90;15.10;;;9.50;99.90;;;;;;4962258;28;20474;-70
2022/02/04 12:06:48;;;;;;;16.30;15.40;;;9.40;99.90;;;;;;4957743;28;21128;-70
2022/02/04 12:09:36;;;;;;;16.23;15.37;;;9.20;99.90;;;;;;4956814;28;20458;-70
2022/02/04 12:12:03;;;;;;;16.30;15.40;;;9.20;99.90;;;;;;4956748;28;20480;-70
2022/02/04 12:14:31;;;;;;;16.00;15.20;;;9.20;99.90;;;;;;4957401;28;20467;-70
2022/02/04 12:17:08;;;;;;;16.60;15.70;;;9.20;99.90;;;;;;4956991;28;20571;-70
2022/02/04 12:19:37;;;;;;;16.03;15.13;;;9.20;99.90;;;;;;4956469;28;20477;-70
2022/02/04 12:22:04;;;;;;;16.10;15.20;;;9.20;99.90;;;;;;4957334;28;20473;-70
2022/02/04 12:24:39;;;;;;;17.23;16.23;;;9.20;99.90;;;;;;4957242;28;20468;-70
2022/02/04 12:27:34;;;;;;;17.30;16.13;;;9.30;99.90;;;;;;4956988;28;20851;-70
2022/02/04 12:30:21;;;;;;;18.17;16.97;;;9.40;99.90;;;;;;4957581;28;20474;-70
2022/02/04 12:32:51;;;;;;;16.43;15.50;;;9.40;99.90;;;;;;4956284;28;20524;-70
2022/02/04 12:35:18;;;;;;;16.70;15.70;;;9.40;99.90;;;;;;4957264;28;20563;-71
2022/02/04 12:37:47;;;;;;;17.43;16.40;;;9.40;99.90;;;;;;4956837;28;20501;-70
2022/02/04 12:40:16;;;;;;;16.93;15.87;;;9.40;99.90;;;;;;4957999;28;20868;-71
2022/02/04 12:42:45;;;;;;;16.77;15.80;;;9.40;99.90;;;;;;4956645;28;20517;-70
2022/02/04 12:45:14;;;;;;;16.73;15.83;;;9.40;99.90;;;;;;4967288;28;20587;-73
2022/02/04 12:47:42;;;;;;;17.17;16.07;;;9.40;99.90;;;;;;4976870;28;20491;-72
2022/02/04 12:50:11;;;;;;;18.17;16.90;;;9.50;99.90;;;;;;4981164;28;20524;-70
2022/02/04 12:52:46;;;;;;;16.87;15.93;;;9.60;99.90;;;;;;4981122;28;20466;-70
2022/02/04 12:55:22;;;;;;;17.17;16.27;;;9.60;99.90;;;;;;4978382;28;20549;-70
2022/02/04 12:58:11;;;;;;;16.60;15.70;;;9.60;99.90;;;;;;4978451;28;20472;-70
2022/02/04 13:07:26;;;;;;;17.30;16.10;;;9.40;99.90;;;;;;4956527;28;21050;-73
2022/02/04 13:09:49;;;;;;;17.23;16.20;;;9.60;99.90;;;;;;4956146;28;20574;-70
2022/02/04 13:12:17;;;;;;;16.93;15.90;;;9.60;99.90;;;;;;4955705;28;21004;-71
2022/02/04 13:14:44;;;;;;;17.37;16.30;;;9.50;99.90;;;;;;4956488;28;20462;-68
2022/02/04 13:17:11;;;;;;;17.47;16.47;;;9.80;99.90;;;;;;4972780;28;20463;-69
2022/02/04 13:19:38;;;;;;;17.43;16.43;;;10.30;99.90;;;;;;4982287;28;20498;-70
2022/02/04 13:22:07;;;;;;;17.80;16.70;;;10.40;99.90;;;;;;4981234;28;20462;-72
2022/02/04 13:24:34;;;;;;;17.57;16.50;;;10.60;99.90;;;;;;4967382;28;20533;-72
2022/02/04 13:27:13;;;;;;;17.20;16.30;;;10.60;99.90;;;;;;4956307;28;20479;-71
2022/02/04 13:29:40;;;;;;;17.70;16.80;;;10.60;99.90;;;;;;4955417;28;20540;-70
2022/02/04 13:32:24;;;;;;;18.20;17.20;;;10.50;99.90;;;;;;4956247;28;20889;-70
2022/02/04 13:34:51;;;;;;;18.30;17.20;;;10.40;99.90;;;;;;4960495;28;20498;-72
2022/02/04 13:37:30;;;;;;;18.53;17.33;;;10.20;99.90;;;;;;4947113;28;20521;-71
2022/02/04 13:40:02;;;;;;;17.30;16.30;;;9.90;99.90;;;;;;4948213;28;20474;-70
2022/02/04 13:42:38;;;;;;;17.40;16.40;;;9.70;99.90;;;;;;4950030;28;20554;-70
2022/02/04 13:45:25;;;;;;;17.67;16.57;;;9.60;99.90;;;;;;4948585;28;20574;-71
2022/02/04 13:48:01;;;;;;;17.20;16.30;;;9.60;99.90;;;;;;4949399;28;20473;-70
2022/02/04 13:50:37;;;;;;;17.90;16.63;;;9.60;99.90;;;;;;4951847;28;20891;-69
2022/02/04 13:53:16;;;;;;;16.93;15.97;;;9.40;99.90;;;;;;4951289;28;20637;-69
2022/02/04 13:55:56;;;;;;;18.07;16.33;;;9.40;99.90;;;;;;4969926;28;20970;-71
2022/02/04 13:58:37;;;;;;;19.17;17.80;;;9.60;99.90;;;;;;4949177;28;20869;-69
2022/02/04 14:01:10;;;;;;;18.47;17.40;;;9.70;99.90;;;;;;4954228;28;20465;-70
2022/02/04 14:03:42;;;;;;;17.30;16.20;;;9.70;99.90;;;;;;4948270;28;21052;-70
2022/02/04 14:06:13;;;;;;;17.83;16.60;;;9.80;99.90;;;;;;4949831;28;20466;-70
2022/02/04 14:08:49;;;;;;;18.13;17.03;;;9.90;99.90;;;;;;4949620;28;20472;-70
2022/02/04 14:11:28;;;;;;;17.47;16.37;;;10.00;99.90;;;;;;4948141;28;20568;-69
2022/02/04 14:13:55;;;;;;;16.30;15.10;;;10.00;99.90;;;;;;4949070;28;20490;-69
2022/02/04 14:16:23;;;;;;;17.20;16.30;;;10.00;99.90;;;;;;4948121;28;21041;-70
2022/02/04 14:18:50;;;;;;;15.93;15.03;;;10.00;99.90;;;;;;4947913;28;20521;-71
2022/02/04 14:21:17;;;;;;;17.00;16.00;;;9.90;99.90;;;;;;4947100;28;20470;-71
2022/02/04 14:23:47;;;;;;;17.43;16.07;;;9.70;99.90;;;;;;4947358;28;20463;-70
2022/02/04 14:26:22;;;;;;;17.60;16.40;;;9.70;99.90;;;;;;4947626;28;20478;-70
2022/02/04 14:28:53;;;;;;;17.10;16.00;;;9.60;99.90;;;;;;4947267;28;20510;-69
2022/02/04 14:31:22;;;;;;;18.40;17.20;;;9.50;99.90;;;;;;4947836;28;20561;-69
2022/02/04 14:36:44;;;;;;;17.87;16.37;;;9.40;99.90;;;;;;4948119;28;20458;-70
2022/02/04 14:50:36;;;;;;;15.97;15.17;;;9.60;99.90;;;;;;4949760;28;20506;-70
2022/02/04 14:53:08;;;;;;;17.00;16.07;;;9.50;99.90;;;;;;4952826;28;20886;-70
2022/02/04 14:58:42;;;;;;;16.20;15.20;;;9.40;99.90;;;;;;4951561;28;20812;-71
2022/02/04 15:01:17;;;;;;;16.63;15.70;;;9.40;99.90;;;;;;4951238;28;21155;-72
2022/02/04 15:03:52;;;;;;;16.67;15.67;;;9.40;99.90;;;;;;4952074;28;20458;-70
2022/02/04 15:06:26;;;;;;;17.20;16.00;;;9.40;99.90;;;;;;4951745;28;21109;-71
2022/02/04 15:08:54;;;;;;;16.43;15.43;;;9.20;99.90;;;;;;4951386;28;20463;-70
2022/02/04 15:11:29;;;;;;;19.60;18.50;;;9.30;99.90;;;;;;4951722;28;20504;-70
2022/02/04 15:13:57;;;;;;;21.63;20.03;;;9.00;99.90;;;;;;4952003;28;20483;-70
2022/02/04 15:16:25;;;;;;;20.73;19.43;;;8.70;99.90;;;;;;4954059;28;21764;-69
2022/02/04 15:18:51;;;;;;;23.30;21.77;;;8.30;99.90;;;;;;4952815;28;21478;-68
2022/02/04 15:21:19;;;;;;;27.97;25.97;;;8.30;99.90;;;;;;4952003;28;21184;-69
2022/02/04 15:23:50;;;;;;;33.60;30.47;;;8.10;99.90;;;;;;4951697;28;20485;-69
2022/02/04 15:26:18;;;;;;;33.70;30.23;;;8.00;99.90;;;;;;4953854;28;20473;-69
2022/02/04 15:28:49;;;;;;;33.53;30.83;;;7.80;99.90;;;;;;4951920;28;20953;-69
2022/02/04 15:31:24;;;;;;;33.37;30.73;;;7.70;99.90;;;;;;4952692;28;21438;-70
2022/02/04 15:33:52;;;;;;;32.20;29.80;;;7.60;99.90;;;;;;4951017;28;21095;-70
2022/02/04 15:36:26;;;;;;;32.97;30.37;;;7.60;99.90;;;;;;4951623;28;20740;-70
2022/02/04 15:38:54;;;;;;;32.27;29.87;;;7.50;99.90;;;;;;4951369;28;20862;-70
2022/02/04 15:41:24;;;;;;;33.83;31.33;;;7.50;99.90;;;;;;4951621;28;20457;-70
2022/02/04 15:43:56;;;;;;;33.93;31.13;;;7.50;99.90;;;;;;4951212;28;20529;-70
2022/02/04 15:49:22;;;;;;;31.90;29.60;;;7.40;99.90;;;;;;4950975;28;20529;-71
2022/02/04 15:55:07;;;;;;;30.93;28.77;;;7.40;99.90;;;;;;4951749;28;20532;-71
2022/02/04 15:57:43;;;;;;;31.00;28.90;;;7.50;99.90;;;;;;4951894;28;20471;-71
2022/02/04 16:00:30;;;;;;;29.80;27.80;;;7.50;99.90;;;;;;4951839;28;20492;-70
2022/02/04 16:03:17;;;;;;;30.80;28.70;;;7.50;99.90;;;;;;4950863;28;21129;-70
2022/02/04 16:05:45;;;;;;;31.40;29.20;;;7.50;99.90;;;;;;4950959;28;20470;-71
2022/02/04 16:08:16;;;;;;;30.70;28.50;;;7.50;99.90;;;;;;4951703;28;20464;-71
2022/02/04 16:10:53;;;;;;;29.20;27.30;;;7.40;99.90;;;;;;4951507;28;20489;-71
2022/02/04 16:13:37;;;;;;;28.60;26.50;;;7.40;99.90;;;;;;4952432;28;20885;-71
2022/02/04 16:16:19;;;;;;;29.93;26.27;;;7.40;99.90;;;;;;4951956;28;20920;-71
2022/02/04 16:18:58;;;;;;;28.57;26.77;;;7.40;99.90;;;;;;4950849;28;20571;-72
2022/02/04 16:21:31;;;;;;;28.80;26.10;;;7.40;99.90;;;;;;4951906;28;21445;-72
2022/02/04 16:24:14;;;;;;;26.40;24.27;;;7.30;99.90;;;;;;4951937;28;20780;-72
2022/02/04 16:26:54;;;;;;;24.30;22.90;;;7.30;99.90;;;;;;4950371;28;20477;-71
2022/02/04 16:29:20;;;;;;;25.80;24.20;;;6.70;99.90;;;;;;4948924;28;20467;-71
2022/02/04 16:31:49;;;;;;;24.60;23.20;;;6.10;99.90;;;;;;4951684;28;20501;-71
2022/02/04 16:34:16;;;;;;;23.67;22.37;;;5.90;99.90;;;;;;4952399;28;21296;-71
2022/02/04 16:36:46;;;;;;;22.30;21.10;;;5.80;99.90;;;;;;4951504;28;20473;-72
2022/02/04 16:39:13;;;;;;;22.60;21.30;;;5.60;99.90;;;;;;4951246;28;20479;-71
2022/02/04 16:41:52;;;;;;;21.23;20.10;;;5.40;99.90;;;;;;4952835;28;21017;-71
2022/02/04 16:44:19;;;;;;;21.10;19.90;;;5.20;99.90;;;;;;4950921;28;21322;-70
2022/02/04 16:46:47;;;;;;;20.57;19.47;;;5.10;99.90;;;;;;4951945;28;20462;-71
2022/02/04 16:49:14;;;;;;;20.23;19.13;;;4.90;99.90;;;;;;4951899;28;20808;-70
2022/02/04 16:51:41;;;;;;;19.63;18.63;;;4.70;99.90;;;;;;4951719;28;20462;-70
2022/02/04 16:54:08;;;;;;;19.70;18.70;;;4.60;99.90;;;;;;4951480;28;21028;-69
2022/02/04 16:56:35;;;;;;;19.77;18.70;;;4.60;99.90;;;;;;4951142;28;20477;-69
2022/02/04 16:59:04;;;;;;;19.43;18.43;;;4.50;99.90;;;;;;4950293;28;20996;-71
2022/02/04 17:01:31;;;;;;;20.27;19.20;;;4.50;99.90;;;;;;4950846;28;20987;-70
2022/02/04 17:04:00;;;;;;;19.93;18.83;;;4.60;99.90;;;;;;4951281;28;20468;-69
2022/02/04 17:06:33;;;;;;;19.00;18.00;;;4.60;99.90;;;;;;4949459;28;20472;-70
2022/02/04 17:09:19;;;;;;;19.27;18.27;;;4.60;99.90;;;;;;4950776;28;21513;-71
2022/02/04 17:11:49;;;;;;;18.67;17.63;;;4.60;99.90;;;;;;4952799;28;20469;-70
2022/02/04 17:14:17;;;;;;;19.87;18.83;;;4.70;99.90;;;;;;4951669;28;20460;-69
2022/02/04 17:16:44;;;;;;;19.73;18.67;;;4.70;99.90;;;;;;4953083;28;20471;-69
2022/02/04 17:19:15;;;;;;;20.90;19.60;;;4.70;99.90;;;;;;4951365;28;20503;-72